Grand Coteau, Louisiana
Current Conditions -  °F | °C
As of 1:35 PM on Friday 31 Oct 2014 (Local Time) from KOPL Reporting Station
Scattered Clouds Scattered Clouds  
Wind Chill: 73°   Ceiling: Unl
Heat Index: 73°   Visibility: 10mi
Dew Point: 45°   Wind: 18mph
Humidity: 37%   Direction: 330°NNW
Pressure: 30.09"   Gusts: 22mph
Location:  30.42°N, 92.05°W
Report Text: KOPL 311835Z AUTO 33016G19KT 10SM SCT002 23/07 A3009 RMK AO2 T02250072
Loading
Personal Weather Stations






























Interactive Weather Map
Tropical Storm Tracking
New forecast layout! Learn more

10-Day Weather Forecast

Advertisements
Track Severe Weather on mobile